sensor_id;sensor_type;location;lat;lon;timestamp;P1;durP1;ratioP1;P2;durP2;ratioP2
19605;SDS011;9950;50.168;8.210;2024-02-16T00:00:51;4.97;;;2.63;;
19605;SDS011;9950;50.168;8.210;2024-02-16T00:03:19;6.68;;;2.90;;
19605;SDS011;9950;50.168;8.210;2024-02-16T00:05:47;8.77;;;3.20;;
19605;SDS011;9950;50.168;8.210;2024-02-16T00:08:16;7.15;;;3.42;;
19605;SDS011;9950;50.168;8.210;2024-02-16T00:10:43;6.95;;;3.17;;
19605;SDS011;9950;50.168;8.210;2024-02-16T00:13:10;4.80;;;3.25;;
19605;SDS011;9950;50.168;8.210;2024-02-16T00:15:38;5.30;;;3.15;;
19605;SDS011;9950;50.168;8.210;2024-02-16T00:18:06;6.88;;;3.88;;
19605;SDS011;9950;50.168;8.210;2024-02-16T00:20:33;6.53;;;3.30;;
19605;SDS011;9950;50.168;8.210;2024-02-16T00:23:00;5.25;;;3.00;;
19605;SDS011;9950;50.168;8.210;2024-02-16T00:25:27;7.75;;;3.13;;
19605;SDS011;9950;50.168;8.210;2024-02-16T00:27:55;6.30;;;2.97;;
19605;SDS011;9950;50.168;8.210;2024-02-16T00:30:22;6.93;;;2.75;;
19605;SDS011;9950;50.168;8.210;2024-02-16T00:32:49;5.30;;;3.17;;
19605;SDS011;9950;50.168;8.210;2024-02-16T00:35:19;8.45;;;3.45;;
19605;SDS011;9950;50.168;8.210;2024-02-16T00:37:46;6.38;;;3.45;;
19605;SDS011;9950;50.168;8.210;2024-02-16T00:40:13;6.90;;;3.38;;
19605;SDS011;9950;50.168;8.210;2024-02-16T00:42:40;7.70;;;3.22;;
19605;SDS011;9950;50.168;8.210;2024-02-16T00:45:07;6.20;;;3.20;;
19605;SDS011;9950;50.168;8.210;2024-02-16T00:47:35;7.68;;;2.90;;
19605;SDS011;9950;50.168;8.210;2024-02-16T00:50:02;4.35;;;3.22;;
19605;SDS011;9950;50.168;8.210;2024-02-16T00:52:31;8.73;;;3.78;;
19605;SDS011;9950;50.168;8.210;2024-02-16T00:54:58;12.30;;;3.90;;
19605;SDS011;9950;50.168;8.210;2024-02-16T00:57:26;8.10;;;3.40;;
19605;SDS011;9950;50.168;8.210;2024-02-16T00:59:53;7.40;;;3.35;;
19605;SDS011;9950;50.168;8.210;2024-02-16T01:02:20;8.10;;;3.78;;
19605;SDS011;9950;50.168;8.210;2024-02-16T01:04:47;6.75;;;3.22;;
19605;SDS011;9950;50.168;8.210;2024-02-16T01:07:15;7.97;;;3.10;;
19605;SDS011;9950;50.168;8.210;2024-02-16T01:09:43;6.40;;;3.53;;
19605;SDS011;9950;50.168;8.210;2024-02-16T01:12:10;6.25;;;3.38;;
19605;SDS011;9950;50.168;8.210;2024-02-16T01:14:38;8.32;;;3.55;;
19605;SDS011;9950;50.168;8.210;2024-02-16T01:17:05;9.35;;;3.80;;
19605;SDS011;9950;50.168;8.210;2024-02-16T01:19:32;7.88;;;3.45;;
19605;SDS011;9950;50.168;8.210;2024-02-16T01:21:59;9.30;;;3.67;;
19605;SDS011;9950;50.168;8.210;2024-02-16T01:24:26;6.90;;;3.50;;
19605;SDS011;9950;50.168;8.210;2024-02-16T01:26:55;5.22;;;3.22;;
19605;SDS011;9950;50.168;8.210;2024-02-16T01:29:23;7.13;;;3.03;;
19605;SDS011;9950;50.168;8.210;2024-02-16T01:31:50;7.45;;;3.40;;
19605;SDS011;9950;50.168;8.210;2024-02-16T01:34:17;9.18;;;3.72;;
19605;SDS011;9950;50.168;8.210;2024-02-16T01:36:44;7.05;;;4.00;;
19605;SDS011;9950;50.168;8.210;2024-02-16T01:39:11;5.55;;;3.17;;
19605;SDS011;9950;50.168;8.210;2024-02-16T01:41:38;7.95;;;3.75;;
19605;SDS011;9950;50.168;8.210;2024-02-16T01:44:07;6.75;;;3.30;;
19605;SDS011;9950;50.168;8.210;2024-02-16T01:46:34;5.97;;;3.67;;
19605;SDS011;9950;50.168;8.210;2024-02-16T01:49:02;6.13;;;3.33;;
19605;SDS011;9950;50.168;8.210;2024-02-16T01:51:29;6.03;;;3.33;;
19605;SDS011;9950;50.168;8.210;2024-02-16T01:53:57;9.27;;;2.97;;
19605;SDS011;9950;50.168;8.210;2024-02-16T01:56:26;4.93;;;2.63;;
19605;SDS011;9950;50.168;8.210;2024-02-16T01:58:53;6.80;;;3.28;;
19605;SDS011;9950;50.168;8.210;2024-02-16T02:01:22;6.97;;;3.58;;
19605;SDS011;9950;50.168;8.210;2024-02-16T02:03:49;6.57;;;3.08;;
19605;SDS011;9950;50.168;8.210;2024-02-16T02:06:16;5.63;;;2.80;;
19605;SDS011;9950;50.168;8.210;2024-02-16T02:08:44;6.75;;;2.75;;
19605;SDS011;9950;50.168;8.210;2024-02-16T02:11:11;5.47;;;3.03;;
19605;SDS011;9950;50.168;8.210;2024-02-16T02:13:38;3.72;;;2.30;;
19605;SDS011;9950;50.168;8.210;2024-02-16T02:16:06;3.92;;;2.33;;
19605;SDS011;9950;50.168;8.210;2024-02-16T02:18:35;5.45;;;3.60;;
19605;SDS011;9950;50.168;8.210;2024-02-16T02:21:02;5.88;;;3.08;;
19605;SDS011;9950;50.168;8.210;2024-02-16T02:23:31;7.28;;;3.17;;
19605;SDS011;9950;50.168;8.210;2024-02-16T02:25:59;8.38;;;3.30;;
19605;SDS011;9950;50.168;8.210;2024-02-16T02:28:26;7.28;;;3.08;;
19605;SDS011;9950;50.168;8.210;2024-02-16T02:30:54;6.70;;;3.17;;
19605;SDS011;9950;50.168;8.210;2024-02-16T02:33:21;6.57;;;3.20;;
19605;SDS011;9950;50.168;8.210;2024-02-16T02:35:48;8.00;;;3.25;;
19605;SDS011;9950;50.168;8.210;2024-02-16T02:38:16;8.25;;;3.63;;
19605;SDS011;9950;50.168;8.210;2024-02-16T02:40:44;7.28;;;3.67;;
19605;SDS011;9950;50.168;8.210;2024-02-16T02:43:11;7.78;;;3.72;;
19605;SDS011;9950;50.168;8.210;2024-02-16T02:45:39;7.47;;;3.63;;
19605;SDS011;9950;50.168;8.210;2024-02-16T02:48:06;4.15;;;3.03;;
19605;SDS011;9950;50.168;8.210;2024-02-16T02:50:33;4.68;;;3.08;;
19605;SDS011;9950;50.168;8.210;2024-02-16T02:53:00;6.82;;;3.20;;
19605;SDS011;9950;50.168;8.210;2024-02-16T02:55:27;5.80;;;3.10;;
19605;SDS011;9950;50.168;8.210;2024-02-16T02:57:56;6.80;;;3.20;;
19605;SDS011;9950;50.168;8.210;2024-02-16T03:00:23;5.95;;;2.80;;
19605;SDS011;9950;50.168;8.210;2024-02-16T03:02:50;5.05;;;3.00;;
19605;SDS011;9950;50.168;8.210;2024-02-16T03:05:18;5.18;;;2.97;;
19605;SDS011;9950;50.168;8.210;2024-02-16T03:07:45;7.75;;;3.25;;
19605;SDS011;9950;50.168;8.210;2024-02-16T03:10:12;5.53;;;3.38;;
19605;SDS011;9950;50.168;8.210;2024-02-16T03:12:45;5.05;;;2.67;;
19605;SDS011;9950;50.168;8.210;2024-02-16T03:15:15;6.72;;;3.17;;
19605;SDS011;9950;50.168;8.210;2024-02-16T03:17:43;3.10;;;2.55;;
19605;SDS011;9950;50.168;8.210;2024-02-16T03:20:10;5.10;;;2.78;;
19605;SDS011;9950;50.168;8.210;2024-02-16T03:22:37;5.90;;;2.83;;
19605;SDS011;9950;50.168;8.210;2024-02-16T03:25:04;9.73;;;2.80;;
19605;SDS011;9950;50.168;8.210;2024-02-16T03:27:31;6.93;;;2.60;;
19605;SDS011;9950;50.168;8.210;2024-02-16T03:29:59;6.20;;;3.38;;
19605;SDS011;9950;50.168;8.210;2024-02-16T03:32:28;6.25;;;2.92;;
19605;SDS011;9950;50.168;8.210;2024-02-16T03:34:56;4.53;;;2.90;;
19605;SDS011;9950;50.168;8.210;2024-02-16T03:37:23;4.50;;;2.92;;
19605;SDS011;9950;50.168;8.210;2024-02-16T03:39:51;3.67;;;2.58;;
19605;SDS011;9950;50.168;8.210;2024-02-16T03:42:18;5.88;;;2.60;;
19605;SDS011;9950;50.168;8.210;2024-02-16T03:44:46;4.55;;;2.60;;
19605;SDS011;9950;50.168;8.210;2024-02-16T03:47:13;4.53;;;3.10;;
19605;SDS011;9950;50.168;8.210;2024-02-16T03:49:42;7.60;;;2.92;;
19605;SDS011;9950;50.168;8.210;2024-02-16T03:52:09;7.43;;;3.20;;
19605;SDS011;9950;50.168;8.210;2024-02-16T03:54:38;6.10;;;3.47;;
19605;SDS011;9950;50.168;8.210;2024-02-16T03:57:05;6.50;;;3.45;;
19605;SDS011;9950;50.168;8.210;2024-02-16T03:59:34;8.77;;;3.92;;
19605;SDS011;9950;50.168;8.210;2024-02-16T04:02:01;7.28;;;3.55;;
19605;SDS011;9950;50.168;8.210;2024-02-16T04:04:29;7.97;;;3.85;;
19605;SDS011;9950;50.168;8.210;2024-02-16T04:06:57;5.32;;;3.67;;
19605;SDS011;9950;50.168;8.210;2024-02-16T04:09:25;6.35;;;4.10;;
19605;SDS011;9950;50.168;8.210;2024-02-16T04:11:52;8.85;;;4.10;;
19605;SDS011;9950;50.168;8.210;2024-02-16T04:14:19;10.00;;;4.45;;
19605;SDS011;9950;50.168;8.210;2024-02-16T04:16:46;9.43;;;4.07;;
19605;SDS011;9950;50.168;8.210;2024-02-16T04:19:14;7.95;;;4.32;;
19605;SDS011;9950;50.168;8.210;2024-02-16T04:21:41;7.50;;;4.35;;
19605;SDS011;9950;50.168;8.210;2024-02-16T04:24:09;6.32;;;3.90;;
19605;SDS011;9950;50.168;8.210;2024-02-16T04:26:37;7.05;;;4.50;;
19605;SDS011;9950;50.168;8.210;2024-02-16T04:29:04;7.28;;;4.32;;
19605;SDS011;9950;50.168;8.210;2024-02-16T04:31:31;8.88;;;4.25;;
19605;SDS011;9950;50.168;8.210;2024-02-16T04:33:58;6.93;;;3.67;;
19605;SDS011;9950;50.168;8.210;2024-02-16T04:36:26;8.02;;;3.80;;
19605;SDS011;9950;50.168;8.210;2024-02-16T04:38:53;5.10;;;3.08;;
19605;SDS011;9950;50.168;8.210;2024-02-16T04:41:22;7.60;;;3.38;;
19605;SDS011;9950;50.168;8.210;2024-02-16T04:43:49;8.48;;;4.35;;
19605;SDS011;9950;50.168;8.210;2024-02-16T04:46:16;6.18;;;3.45;;
19605;SDS011;9950;50.168;8.210;2024-02-16T04:48:43;4.53;;;3.42;;
19605;SDS011;9950;50.168;8.210;2024-02-16T04:51:11;6.10;;;3.17;;
19605;SDS011;9950;50.168;8.210;2024-02-16T04:53:38;6.97;;;3.80;;
19605;SDS011;9950;50.168;8.210;2024-02-16T04:56:05;6.93;;;3.70;;
19605;SDS011;9950;50.168;8.210;2024-02-16T04:58:34;6.72;;;3.10;;
19605;SDS011;9950;50.168;8.210;2024-02-16T05:01:01;7.55;;;3.58;;
19605;SDS011;9950;50.168;8.210;2024-02-16T05:03:30;5.55;;;2.80;;
19605;SDS011;9950;50.168;8.210;2024-02-16T05:05:57;7.45;;;3.25;;
19605;SDS011;9950;50.168;8.210;2024-02-16T05:08:24;6.38;;;3.33;;
19605;SDS011;9950;50.168;8.210;2024-02-16T05:10:51;5.93;;;3.42;;
19605;SDS011;9950;50.168;8.210;2024-02-16T05:13:19;7.10;;;3.20;;
19605;SDS011;9950;50.168;8.210;2024-02-16T05:15:47;4.45;;;2.63;;
19605;SDS011;9950;50.168;8.210;2024-02-16T05:18:14;7.05;;;2.97;;
19605;SDS011;9950;50.168;8.210;2024-02-16T05:20:42;4.85;;;2.90;;
19605;SDS011;9950;50.168;8.210;2024-02-16T05:23:10;5.25;;;2.58;;
19605;SDS011;9950;50.168;8.210;2024-02-16T05:25:37;8.07;;;3.53;;
19605;SDS011;9950;50.168;8.210;2024-02-16T05:28:04;3.97;;;2.80;;
19605;SDS011;9950;50.168;8.210;2024-02-16T05:30:31;6.82;;;2.97;;
19605;SDS011;9950;50.168;8.210;2024-02-16T05:33:00;8.25;;;3.00;;
19605;SDS011;9950;50.168;8.210;2024-02-16T05:35:27;5.13;;;2.63;;
19605;SDS011;9950;50.168;8.210;2024-02-16T05:37:58;4.10;;;2.58;;
19605;SDS011;9950;50.168;8.210;2024-02-16T05:40:32;3.55;;;2.88;;
19605;SDS011;9950;50.168;8.210;2024-02-16T05:43:10;8.02;;;3.33;;
19605;SDS011;9950;50.168;8.210;2024-02-16T05:45:37;5.63;;;3.17;;
19605;SDS011;9950;50.168;8.210;2024-02-16T05:48:07;5.45;;;3.03;;
19605;SDS011;9950;50.168;8.210;2024-02-16T05:50:35;9.10;;;2.80;;
19605;SDS011;9950;50.168;8.210;2024-02-16T05:53:03;5.20;;;2.53;;
19605;SDS011;9950;50.168;8.210;2024-02-16T05:55:30;4.85;;;2.88;;
19605;SDS011;9950;50.168;8.210;2024-02-16T05:57:57;5.70;;;2.85;;
19605;SDS011;9950;50.168;8.210;2024-02-16T06:00:25;6.32;;;3.67;;
19605;SDS011;9950;50.168;8.210;2024-02-16T06:02:52;4.82;;;3.05;;
19605;SDS011;9950;50.168;8.210;2024-02-16T06:05:23;5.18;;;3.03;;
19605;SDS011;9950;50.168;8.210;2024-02-16T06:07:50;5.97;;;3.10;;
19605;SDS011;9950;50.168;8.210;2024-02-16T06:10:17;4.63;;;3.00;;
19605;SDS011;9950;50.168;8.210;2024-02-16T06:12:44;6.93;;;3.30;;
19605;SDS011;9950;50.168;8.210;2024-02-16T06:15:12;6.68;;;2.78;;
19605;SDS011;9950;50.168;8.210;2024-02-16T06:17:39;6.90;;;3.20;;
19605;SDS011;9950;50.168;8.210;2024-02-16T06:20:07;4.88;;;2.95;;
19605;SDS011;9950;50.168;8.210;2024-02-16T06:22:37;7.07;;;3.00;;
19605;SDS011;9950;50.168;8.210;2024-02-16T06:25:04;3.83;;;2.60;;
19605;SDS011;9950;50.168;8.210;2024-02-16T06:27:32;7.38;;;2.70;;
19605;SDS011;9950;50.168;8.210;2024-02-16T06:29:59;4.05;;;2.78;;
19605;SDS011;9950;50.168;8.210;2024-02-16T06:32:26;4.45;;;2.90;;
19605;SDS011;9950;50.168;8.210;2024-02-16T06:34:53;3.55;;;2.65;;
19605;SDS011;9950;50.168;8.210;2024-02-16T06:37:20;4.28;;;2.33;;
19605;SDS011;9950;50.168;8.210;2024-02-16T06:39:49;5.75;;;2.55;;
19605;SDS011;9950;50.168;8.210;2024-02-16T06:42:16;5.90;;;2.53;;
19605;SDS011;9950;50.168;8.210;2024-02-16T06:44:43;4.60;;;2.60;;
19605;SDS011;9950;50.168;8.210;2024-02-16T06:47:10;6.28;;;2.78;;
19605;SDS011;9950;50.168;8.210;2024-02-16T06:49:37;5.20;;;2.83;;
19605;SDS011;9950;50.168;8.210;2024-02-16T06:52:05;4.25;;;2.00;;
19605;SDS011;9950;50.168;8.210;2024-02-16T06:54:34;5.43;;;2.25;;
19605;SDS011;9950;50.168;8.210;2024-02-16T06:57:02;3.95;;;2.38;;
19605;SDS011;9950;50.168;8.210;2024-02-16T06:59:29;4.82;;;2.38;;
19605;SDS011;9950;50.168;8.210;2024-02-16T07:01:56;5.32;;;2.70;;
19605;SDS011;9950;50.168;8.210;2024-02-16T07:04:23;4.00;;;2.40;;
19605;SDS011;9950;50.168;8.210;2024-02-16T07:06:50;3.90;;;2.47;;
19605;SDS011;9950;50.168;8.210;2024-02-16T07:09:17;5.82;;;3.08;;
19605;SDS011;9950;50.168;8.210;2024-02-16T07:11:44;4.72;;;3.03;;
19605;SDS011;9950;50.168;8.210;2024-02-16T07:14:14;6.38;;;3.10;;
19605;SDS011;9950;50.168;8.210;2024-02-16T07:16:41;4.88;;;3.35;;
19605;SDS011;9950;50.168;8.210;2024-02-16T07:19:08;6.22;;;3.58;;
19605;SDS011;9950;50.168;8.210;2024-02-16T07:21:36;8.00;;;4.00;;
19605;SDS011;9950;50.168;8.210;2024-02-16T07:24:03;8.10;;;4.25;;
19605;SDS011;9950;50.168;8.210;2024-02-16T07:26:30;7.70;;;4.55;;
19605;SDS011;9950;50.168;8.210;2024-02-16T07:28:58;7.50;;;3.90;;
19605;SDS011;9950;50.168;8.210;2024-02-16T07:31:30;7.32;;;4.30;;
19605;SDS011;9950;50.168;8.210;2024-02-16T07:33:57;6.35;;;3.58;;
19605;SDS011;9950;50.168;8.210;2024-02-16T07:36:24;6.43;;;3.45;;
19605;SDS011;9950;50.168;8.210;2024-02-16T07:38:51;7.43;;;4.00;;
19605;SDS011;9950;50.168;8.210;2024-02-16T07:41:18;7.20;;;4.18;;
19605;SDS011;9950;50.168;8.210;2024-02-16T07:43:45;9.52;;;4.28;;
19605;SDS011;9950;50.168;8.210;2024-02-16T07:46:12;6.40;;;4.07;;
19605;SDS011;9950;50.168;8.210;2024-02-16T07:48:41;10.93;;;4.50;;
19605;SDS011;9950;50.168;8.210;2024-02-16T07:51:08;7.43;;;4.25;;
19605;SDS011;9950;50.168;8.210;2024-02-16T07:53:35;5.57;;;3.63;;
19605;SDS011;9950;50.168;8.210;2024-02-16T07:56:06;7.10;;;3.50;;
19605;SDS011;9950;50.168;8.210;2024-02-16T07:58:33;6.70;;;3.70;;
19605;SDS011;9950;50.168;8.210;2024-02-16T08:01:00;6.82;;;4.00;;
19605;SDS011;9950;50.168;8.210;2024-02-16T08:03:27;7.95;;;3.95;;
19605;SDS011;9950;50.168;8.210;2024-02-16T08:05:57;7.22;;;3.47;;
19605;SDS011;9950;50.168;8.210;2024-02-16T08:08:24;5.50;;;3.30;;
19605;SDS011;9950;50.168;8.210;2024-02-16T08:10:51;5.75;;;3.72;;
19605;SDS011;9950;50.168;8.210;2024-02-16T08:13:18;8.57;;;3.47;;
19605;SDS011;9950;50.168;8.210;2024-02-16T08:15:46;7.28;;;3.38;;
19605;SDS011;9950;50.168;8.210;2024-02-16T08:18:13;5.53;;;3.35;;
19605;SDS011;9950;50.168;8.210;2024-02-16T08:20:41;4.45;;;3.08;;
19605;SDS011;9950;50.168;8.210;2024-02-16T08:23:10;5.07;;;2.80;;
19605;SDS011;9950;50.168;8.210;2024-02-16T08:25:37;4.88;;;3.38;;
19605;SDS011;9950;50.168;8.210;2024-02-16T08:28:04;4.38;;;2.75;;
19605;SDS011;9950;50.168;8.210;2024-02-16T08:30:32;5.30;;;3.08;;
19605;SDS011;9950;50.168;8.210;2024-02-16T08:33:00;4.63;;;2.58;;
19605;SDS011;9950;50.168;8.210;2024-02-16T08:35:28;4.22;;;2.97;;
19605;SDS011;9950;50.168;8.210;2024-02-16T08:37:55;4.88;;;3.20;;
19605;SDS011;9950;50.168;8.210;2024-02-16T08:40:23;5.60;;;3.08;;
19605;SDS011;9950;50.168;8.210;2024-02-16T08:42:50;5.30;;;3.20;;
19605;SDS011;9950;50.168;8.210;2024-02-16T08:45:18;5.35;;;3.00;;
19605;SDS011;9950;50.168;8.210;2024-02-16T08:47:45;4.35;;;2.97;;
19605;SDS011;9950;50.168;8.210;2024-02-16T08:50:12;4.28;;;3.00;;
19605;SDS011;9950;50.168;8.210;2024-02-16T08:52:39;5.20;;;3.00;;
19605;SDS011;9950;50.168;8.210;2024-02-16T08:55:06;7.47;;;3.40;;
19605;SDS011;9950;50.168;8.210;2024-02-16T08:57:35;6.13;;;3.08;;
19605;SDS011;9950;50.168;8.210;2024-02-16T09:00:03;4.65;;;3.08;;
19605;SDS011;9950;50.168;8.210;2024-02-16T09:02:30;5.78;;;3.05;;
19605;SDS011;9950;50.168;8.210;2024-02-16T09:04:57;5.05;;;3.00;;
19605;SDS011;9950;50.168;8.210;2024-02-16T09:07:24;5.18;;;3.03;;
19605;SDS011;9950;50.168;8.210;2024-02-16T09:09:54;5.75;;;2.83;;
19605;SDS011;9950;50.168;8.210;2024-02-16T09:12:21;5.55;;;2.53;;
19605;SDS011;9950;50.168;8.210;2024-02-16T09:14:50;6.30;;;3.03;;
19605;SDS011;9950;50.168;8.210;2024-02-16T09:17:17;5.57;;;3.25;;
19605;SDS011;9950;50.168;8.210;2024-02-16T09:19:45;5.80;;;2.78;;
19605;SDS011;9950;50.168;8.210;2024-02-16T09:22:12;6.85;;;2.70;;
19605;SDS011;9950;50.168;8.210;2024-02-16T09:24:40;4.78;;;2.95;;
19605;SDS011;9950;50.168;8.210;2024-02-16T09:27:11;4.97;;;2.70;;
19605;SDS011;9950;50.168;8.210;2024-02-16T09:29:39;5.22;;;2.90;;
19605;SDS011;9950;50.168;8.210;2024-02-16T09:32:07;5.32;;;2.42;;
19605;SDS011;9950;50.168;8.210;2024-02-16T09:34:34;5.78;;;2.28;;
19605;SDS011;9950;50.168;8.210;2024-02-16T09:37:01;4.82;;;2.50;;
19605;SDS011;9950;50.168;8.210;2024-02-16T09:39:29;7.00;;;2.95;;
19605;SDS011;9950;50.168;8.210;2024-02-16T09:41:57;3.42;;;2.22;;
19605;SDS011;9950;50.168;8.210;2024-02-16T09:44:24;3.08;;;2.28;;
19605;SDS011;9950;50.168;8.210;2024-02-16T09:46:51;3.22;;;2.22;;
19605;SDS011;9950;50.168;8.210;2024-02-16T09:49:22;5.53;;;2.47;;
19605;SDS011;9950;50.168;8.210;2024-02-16T09:51:49;4.97;;;2.28;;
19605;SDS011;9950;50.168;8.210;2024-02-16T09:54:17;7.93;;;2.80;;
19605;SDS011;9950;50.168;8.210;2024-02-16T09:56:44;6.68;;;2.67;;
19605;SDS011;9950;50.168;8.210;2024-02-16T09:59:12;4.38;;;2.30;;
19605;SDS011;9950;50.168;8.210;2024-02-16T10:01:39;4.22;;;2.47;;
19605;SDS011;9950;50.168;8.210;2024-02-16T10:04:06;3.58;;;2.28;;
19605;SDS011;9950;50.168;8.210;2024-02-16T10:06:39;4.72;;;2.38;;
19605;SDS011;9950;50.168;8.210;2024-02-16T10:09:21;4.43;;;2.47;;
19605;SDS011;9950;50.168;8.210;2024-02-16T10:11:48;4.32;;;2.25;;
19605;SDS011;9950;50.168;8.210;2024-02-16T10:14:15;4.65;;;2.53;;
19605;SDS011;9950;50.168;8.210;2024-02-16T10:16:44;6.78;;;2.67;;
19605;SDS011;9950;50.168;8.210;2024-02-16T10:19:12;3.08;;;2.40;;
19605;SDS011;9950;50.168;8.210;2024-02-16T10:21:41;4.07;;;2.45;;
19605;SDS011;9950;50.168;8.210;2024-02-16T10:24:09;4.60;;;2.17;;
19605;SDS011;9950;50.168;8.210;2024-02-16T10:26:37;6.70;;;2.67;;
19605;SDS011;9950;50.168;8.210;2024-02-16T10:29:05;3.72;;;2.25;;
19605;SDS011;9950;50.168;8.210;2024-02-16T10:31:33;4.70;;;2.30;;
19605;SDS011;9950;50.168;8.210;2024-02-16T10:34:01;6.13;;;2.50;;
19605;SDS011;9950;50.168;8.210;2024-02-16T10:36:31;4.95;;;2.65;;
19605;SDS011;9950;50.168;8.210;2024-02-16T10:39:00;5.45;;;2.40;;
19605;SDS011;9950;50.168;8.210;2024-02-16T10:41:30;6.25;;;2.65;;
19605;SDS011;9950;50.168;8.210;2024-02-16T10:44:00;4.68;;;2.25;;
19605;SDS011;9950;50.168;8.210;2024-02-16T10:46:28;5.80;;;2.53;;
19605;SDS011;9950;50.168;8.210;2024-02-16T10:48:55;3.55;;;2.50;;
19605;SDS011;9950;50.168;8.210;2024-02-16T10:51:23;5.13;;;2.75;;
19605;SDS011;9950;50.168;8.210;2024-02-16T10:53:51;4.47;;;2.47;;
19605;SDS011;9950;50.168;8.210;2024-02-16T10:56:27;4.40;;;2.38;;
19605;SDS011;9950;50.168;8.210;2024-02-16T10:58:56;4.90;;;2.42;;
19605;SDS011;9950;50.168;8.210;2024-02-16T11:01:27;3.17;;;2.28;;
19605;SDS011;9950;50.168;8.210;2024-02-16T11:04:00;4.63;;;2.58;;
19605;SDS011;9950;50.168;8.210;2024-02-16T11:06:28;6.82;;;3.03;;
19605;SDS011;9950;50.168;8.210;2024-02-16T11:09:01;8.65;;;2.53;;
19605;SDS011;9950;50.168;8.210;2024-02-16T11:11:34;5.30;;;2.53;;
19605;SDS011;9950;50.168;8.210;2024-02-16T11:14:02;4.00;;;2.80;;
19605;SDS011;9950;50.168;8.210;2024-02-16T11:16:29;8.25;;;2.90;;
19605;SDS011;9950;50.168;8.210;2024-02-16T11:18:57;6.60;;;4.45;;
19605;SDS011;9950;50.168;8.210;2024-02-16T11:21:26;5.15;;;3.00;;
19605;SDS011;9950;50.168;8.210;2024-02-16T11:23:53;4.63;;;2.72;;
19605;SDS011;9950;50.168;8.210;2024-02-16T11:26:30;4.50;;;2.90;;
19605;SDS011;9950;50.168;8.210;2024-02-16T11:28:59;6.28;;;3.50;;
19605;SDS011;9950;50.168;8.210;2024-02-16T11:31:26;6.30;;;3.25;;
19605;SDS011;9950;50.168;8.210;2024-02-16T11:33:53;5.75;;;3.03;;
19605;SDS011;9950;50.168;8.210;2024-02-16T11:36:20;4.78;;;3.03;;
19605;SDS011;9950;50.168;8.210;2024-02-16T11:38:49;4.53;;;3.15;;
19605;SDS011;9950;50.168;8.210;2024-02-16T11:41:16;6.47;;;3.17;;
19605;SDS011;9950;50.168;8.210;2024-02-16T11:43:43;7.43;;;3.33;;
19605;SDS011;9950;50.168;8.210;2024-02-16T11:46:12;5.68;;;3.03;;
19605;SDS011;9950;50.168;8.210;2024-02-16T11:48:39;6.68;;;3.78;;
19605;SDS011;9950;50.168;8.210;2024-02-16T11:51:07;6.93;;;3.25;;
19605;SDS011;9950;50.168;8.210;2024-02-16T11:53:34;7.90;;;3.28;;
19605;SDS011;9950;50.168;8.210;2024-02-16T11:56:01;6.35;;;3.72;;
19605;SDS011;9950;50.168;8.210;2024-02-16T11:58:29;6.10;;;3.08;;
19605;SDS011;9950;50.168;8.210;2024-02-16T12:00:57;6.82;;;4.03;;
19605;SDS011;9950;50.168;8.210;2024-02-16T12:03:26;5.53;;;3.42;;
19605;SDS011;9950;50.168;8.210;2024-02-16T12:05:53;8.30;;;3.75;;
19605;SDS011;9950;50.168;8.210;2024-02-16T12:08:21;8.48;;;3.53;;
19605;SDS011;9950;50.168;8.210;2024-02-16T12:10:48;7.63;;;3.70;;
19605;SDS011;9950;50.168;8.210;2024-02-16T12:13:16;5.25;;;3.08;;
19605;SDS011;9950;50.168;8.210;2024-02-16T12:15:44;7.38;;;3.47;;
19605;SDS011;9950;50.168;8.210;2024-02-16T12:18:18;6.70;;;3.47;;
19605;SDS011;9950;50.168;8.210;2024-02-16T12:20:57;6.13;;;3.55;;
19605;SDS011;9950;50.168;8.210;2024-02-16T12:23:24;7.72;;;3.47;;
19605;SDS011;9950;50.168;8.210;2024-02-16T12:25:51;7.18;;;3.50;;
19605;SDS011;9950;50.168;8.210;2024-02-16T12:28:19;5.90;;;3.25;;
19605;SDS011;9950;50.168;8.210;2024-02-16T12:30:47;5.43;;;3.13;;
19605;SDS011;9950;50.168;8.210;2024-02-16T12:33:14;8.15;;;3.38;;
19605;SDS011;9950;50.168;8.210;2024-02-16T12:35:41;8.32;;;3.67;;
19605;SDS011;9950;50.168;8.210;2024-02-16T12:38:10;5.53;;;3.30;;
19605;SDS011;9950;50.168;8.210;2024-02-16T12:40:38;7.85;;;3.70;;
19605;SDS011;9950;50.168;8.210;2024-02-16T12:43:05;4.88;;;3.20;;
19605;SDS011;9950;50.168;8.210;2024-02-16T12:45:34;10.95;;;4.28;;
19605;SDS011;9950;50.168;8.210;2024-02-16T12:48:01;10.35;;;4.07;;
19605;SDS011;9950;50.168;8.210;2024-02-16T12:50:29;6.32;;;4.00;;
19605;SDS011;9950;50.168;8.210;2024-02-16T12:52:56;6.28;;;3.75;;
19605;SDS011;9950;50.168;8.210;2024-02-16T12:55:24;5.75;;;3.40;;
19605;SDS011;9950;50.168;8.210;2024-02-16T12:57:52;7.05;;;3.72;;
19605;SDS011;9950;50.168;8.210;2024-02-16T13:00:19;6.65;;;4.15;;
19605;SDS011;9950;50.168;8.210;2024-02-16T13:02:46;8.32;;;3.92;;
19605;SDS011;9950;50.168;8.210;2024-02-16T13:05:14;5.68;;;4.15;;
19605;SDS011;9950;50.168;8.210;2024-02-16T13:07:41;5.53;;;3.90;;
19605;SDS011;9950;50.168;8.210;2024-02-16T13:10:08;8.45;;;4.53;;
19605;SDS011;9950;50.168;8.210;2024-02-16T13:12:37;9.25;;;4.38;;
19605;SDS011;9950;50.168;8.210;2024-02-16T13:15:04;7.10;;;3.90;;
19605;SDS011;9950;50.168;8.210;2024-02-16T13:17:33;8.15;;;4.10;;
19605;SDS011;9950;50.168;8.210;2024-02-16T13:20:00;7.55;;;4.68;;
19605;SDS011;9950;50.168;8.210;2024-02-16T13:22:32;9.07;;;4.20;;
19605;SDS011;9950;50.168;8.210;2024-02-16T13:25:00;10.40;;;5.22;;
19605;SDS011;9950;50.168;8.210;2024-02-16T13:27:28;7.32;;;4.50;;
19605;SDS011;9950;50.168;8.210;2024-02-16T13:29:56;9.45;;;4.80;;
19605;SDS011;9950;50.168;8.210;2024-02-16T13:32:24;9.13;;;4.70;;
19605;SDS011;9950;50.168;8.210;2024-02-16T13:34:51;8.15;;;4.10;;
19605;SDS011;9950;50.168;8.210;2024-02-16T13:37:18;8.32;;;3.83;;
19605;SDS011;9950;50.168;8.210;2024-02-16T13:39:46;7.13;;;3.95;;
19605;SDS011;9950;50.168;8.210;2024-02-16T13:42:13;7.00;;;4.13;;
19605;SDS011;9950;50.168;8.210;2024-02-16T13:44:41;7.20;;;4.00;;
19605;SDS011;9950;50.168;8.210;2024-02-16T13:47:09;9.05;;;4.20;;
19605;SDS011;9950;50.168;8.210;2024-02-16T13:49:36;5.45;;;3.60;;
19605;SDS011;9950;50.168;8.210;2024-02-16T13:52:04;6.28;;;3.72;;
19605;SDS011;9950;50.168;8.210;2024-02-16T13:54:33;8.82;;;3.70;;
19605;SDS011;9950;50.168;8.210;2024-02-16T13:57:01;7.15;;;3.60;;
19605;SDS011;9950;50.168;8.210;2024-02-16T13:59:28;5.35;;;3.20;;
19605;SDS011;9950;50.168;8.210;2024-02-16T14:01:56;5.57;;;3.40;;
19605;SDS011;9950;50.168;8.210;2024-02-16T14:04:25;7.10;;;3.10;;
19605;SDS011;9950;50.168;8.210;2024-02-16T14:06:53;9.02;;;3.72;;
19605;SDS011;9950;50.168;8.210;2024-02-16T14:09:20;7.75;;;3.05;;
19605;SDS011;9950;50.168;8.210;2024-02-16T14:11:47;7.70;;;3.10;;
19605;SDS011;9950;50.168;8.210;2024-02-16T14:14:14;5.55;;;3.10;;
19605;SDS011;9950;50.168;8.210;2024-02-16T14:16:42;10.27;;;3.25;;
19605;SDS011;9950;50.168;8.210;2024-02-16T14:19:09;9.18;;;3.90;;
19605;SDS011;9950;50.168;8.210;2024-02-16T14:21:38;5.97;;;3.05;;
19605;SDS011;9950;50.168;8.210;2024-02-16T14:24:05;8.15;;;2.83;;
19605;SDS011;9950;50.168;8.210;2024-02-16T14:26:35;6.10;;;3.30;;
19605;SDS011;9950;50.168;8.210;2024-02-16T14:29:02;5.78;;;3.00;;
19605;SDS011;9950;50.168;8.210;2024-02-16T14:31:30;4.95;;;3.10;;
19605;SDS011;9950;50.168;8.210;2024-02-16T14:33:58;9.10;;;3.45;;
19605;SDS011;9950;50.168;8.210;2024-02-16T14:36:25;5.65;;;2.83;;
19605;SDS011;9950;50.168;8.210;2024-02-16T14:38:54;7.60;;;3.10;;
19605;SDS011;9950;50.168;8.210;2024-02-16T14:41:21;5.55;;;2.80;;
19605;SDS011;9950;50.168;8.210;2024-02-16T14:43:49;5.60;;;3.03;;
19605;SDS011;9950;50.168;8.210;2024-02-16T14:46:16;10.05;;;3.28;;
19605;SDS011;9950;50.168;8.210;2024-02-16T14:48:43;7.50;;;3.25;;
19605;SDS011;9950;50.168;8.210;2024-02-16T14:51:12;7.43;;;2.85;;
19605;SDS011;9950;50.168;8.210;2024-02-16T14:53:39;7.72;;;3.30;;
19605;SDS011;9950;50.168;8.210;2024-02-16T14:56:08;11.25;;;4.15;;
19605;SDS011;9950;50.168;8.210;2024-02-16T14:58:35;8.35;;;3.10;;
19605;SDS011;9950;50.168;8.210;2024-02-16T15:01:02;7.82;;;3.50;;
19605;SDS011;9950;50.168;8.210;2024-02-16T15:03:29;7.00;;;2.80;;